Aviation Digital Data Service (ADDS)

Output produced by METARs form (1616 UTC 31 October 2014)
found at http://aviationweather.gov/adds/metars/
 
METAR text: GVAC 311600Z 06015KT 9999 FEW012 BKN014 29/21 Q1014 NOSIG
Conditions at: GVAC (SAL ISL/AMILCAR , CV) observed 1600 UTC 31 October 2014
Temperature: 29.0°C (84°F)
Dewpoint: 21.0°C (70°F) [RH = 62%]
Pressure (altimeter): 29.94 inches Hg (1014.0 mb)
Winds: from the ENE (60 degrees) at 17 MPH (15 knots; 7.8 m/s)
Visibility: 6 or more miles (10+ km)
Ceiling: 1400 feet AGL
Clouds: few clouds at 1200 feet AGL
broken clouds at 1400 feet AGL
Weather: no significant weather observed at this time

METAR text: GVAC 311500Z 05011KT 9999 FEW012 BKN014 29/21 Q1014 NOSIG
Conditions at: GVAC (SAL ISL/AMILCAR , CV) observed 1500 UTC 31 October 2014
Temperature: 29.0°C (84°F)
Dewpoint: 21.0°C (70°F) [RH = 62%]
Pressure (altimeter): 29.94 inches Hg (1014.0 mb)
Winds: from the NE (50 degrees) at 13 MPH (11 knots; 5.7 m/s)
Visibility: 6 or more miles (10+ km)
Ceiling: 1400 feet AGL
Clouds: few clouds at 1200 feet AGL
broken clouds at 1400 feet AGL
Weather: no significant weather observed at this time

METAR text: GVAC 311400Z 07011KT 9999 FEW012 BKN014 29/21 Q1014 NOSIG
Conditions at: GVAC (SAL ISL/AMILCAR , CV) observed 1400 UTC 31 October 2014
Temperature: 29.0°C (84°F)
Dewpoint: 21.0°C (70°F) [RH = 62%]
Pressure (altimeter): 29.94 inches Hg (1014.0 mb)
Winds: from the ENE (70 degrees) at 13 MPH (11 knots; 5.7 m/s)
Visibility: 6 or more miles (10+ km)
Ceiling: 1400 feet AGL
Clouds: few clouds at 1200 feet AGL
broken clouds at 1400 feet AGL
Weather: no significant weather observed at this time

METAR text: GVAC 311300Z 06011KT 9999 FEW012 BKN014 29/20 Q1015 NOSIG
Conditions at: GVAC (SAL ISL/AMILCAR , CV) observed 1300 UTC 31 October 2014
Temperature: 29.0°C (84°F)
Dewpoint: 20.0°C (68°F) [RH = 58%]
Pressure (altimeter): 29.97 inches Hg (1015.0 mb)
Winds: from the ENE (60 degrees) at 13 MPH (11 knots; 5.7 m/s)
Visibility: 6 or more miles (10+ km)
Ceiling: 1400 feet AGL
Clouds: few clouds at 1200 feet AGL
broken clouds at 1400 feet AGL
Weather: no significant weather observed at this time

METAR text: GVAC 311200Z 05009KT 9999 FEW012 BKN014 29/20 Q1016 NOSIG
Conditions at: GVAC (SAL ISL/AMILCAR , CV) observed 1200 UTC 31 October 2014
Temperature: 29.0°C (84°F)
Dewpoint: 20.0°C (68°F) [RH = 58%]
Pressure (altimeter): 30.00 inches Hg (1016.0 mb)
Winds: from the NE (50 degrees) at 10 MPH (9 knots; 4.7 m/s)
Visibility: 6 or more miles (10+ km)
Ceiling: 1400 feet AGL
Clouds: few clouds at 1200 feet AGL
broken clouds at 1400 feet AGL
Weather: no significant weather observed at this time

METAR text: GVAC 311100Z 04007KT 9999 BKN014 28/20 Q1016 NOSIG
Conditions at: GVAC (SAL ISL/AMILCAR , CV) observed 1100 UTC 31 October 2014
Temperature: 28.0°C (82°F)
Dewpoint: 20.0°C (68°F) [RH = 62%]
Pressure (altimeter): 30.00 inches Hg (1016.0 mb)
Winds: from the NE (40 degrees) at 8 MPH (7 knots; 3.6 m/s)
Visibility: 6 or more miles (10+ km)
Ceiling: 1400 feet AGL
Clouds: broken clouds at 1400 feet AGL
Weather: no significant weather observed at this time

METAR text: GVAC 311000Z 02012KT 9999 BKN012 BKN014 27/20 Q1016 NOSIG
Conditions at: GVAC (SAL ISL/AMILCAR , CV) observed 1000 UTC 31 October 2014
Temperature: 27.0°C (81°F)
Dewpoint: 20.0°C (68°F) [RH = 66%]
Pressure (altimeter): 30.00 inches Hg (1016.0 mb)
Winds: from the NNE (20 degrees) at 14 MPH (12 knots; 6.2 m/s)
Visibility: 6 or more miles (10+ km)
Ceiling: 1200 feet AGL
Clouds: broken clouds at 1200 feet AGL
broken clouds at 1400 feet AGL
Weather: no significant weather observed at this time

METAR text: GVAC 310900Z 04005KT 9999 SCT012 BKN014 27/20 Q1016 NOSIG
Conditions at: GVAC (SAL ISL/AMILCAR , CV) observed 0900 UTC 31 October 2014
Temperature: 27.0°C (81°F)
Dewpoint: 20.0°C (68°F) [RH = 66%]
Pressure (altimeter): 30.00 inches Hg (1016.0 mb)
Winds: from the NE (40 degrees) at 6 MPH (5 knots; 2.6 m/s)
Visibility: 6 or more miles (10+ km)
Ceiling: 1400 feet AGL
Clouds: scattered clouds at 1200 feet AGL
broken clouds at 1400 feet AGL
Weather: no significant weather observed at this time

METAR text: GVAC 310800Z 04003KT 9999 FEW012 SCT014 23/20 Q1016 NOSIG
Conditions at: GVAC (SAL ISL/AMILCAR , CV) observed 0800 UTC 31 October 2014
Temperature: 23.0°C (73°F)
Dewpoint: 20.0°C (68°F) [RH = 83%]
Pressure (altimeter): 30.00 inches Hg (1016.0 mb)
Winds: from the NE (40 degrees) at 3 MPH (3 knots; 1.6 m/s)
Visibility: 6 or more miles (10+ km)
Ceiling: at least 12,000 feet AGL
Clouds: few clouds at 1200 feet AGL
scattered clouds at 1400 feet AGL
Weather: no significant weather observed at this time

METAR text: GVAC 310700Z 02004KT 9999 FEW013 23/20 Q1015 NOSIG
Conditions at: GVAC (SAL ISL/AMILCAR , CV) observed 0700 UTC 31 October 2014
Temperature: 23.0°C (73°F)
Dewpoint: 20.0°C (68°F) [RH = 83%]
Pressure (altimeter): 29.97 inches Hg (1015.0 mb)
Winds: from the NNE (20 degrees) at 5 MPH (4 knots; 2.1 m/s)
Visibility: 6 or more miles (10+ km)
Ceiling: at least 12,000 feet AGL
Clouds: few clouds at 1300 feet AGL
Weather: no significant weather observed at this time

METAR text: GVAC 310600Z 06003KT 9999 FEW013 23/20 Q1014 NOSIG
Conditions at: GVAC (SAL ISL/AMILCAR , CV) observed 0600 UTC 31 October 2014
Temperature: 23.0°C (73°F)
Dewpoint: 20.0°C (68°F) [RH = 83%]
Pressure (altimeter): 29.94 inches Hg (1014.0 mb)
Winds: from the ENE (60 degrees) at 3 MPH (3 knots; 1.6 m/s)
Visibility: 6 or more miles (10+ km)
Ceiling: at least 12,000 feet AGL
Clouds: few clouds at 1300 feet AGL
Weather: no significant weather observed at this time

METAR text: GVAC 310500Z 02005KT 9999 FEW013 24/20 Q1015 NOSIG
Conditions at: GVAC (SAL ISL/AMILCAR , CV) observed 0500 UTC 31 October 2014
Temperature: 24.0°C (75°F)
Dewpoint: 20.0°C (68°F) [RH = 78%]
Pressure (altimeter): 29.97 inches Hg (1015.0 mb)
Winds: from the NNE (20 degrees) at 6 MPH (5 knots; 2.6 m/s)
Visibility: 6 or more miles (10+ km)
Ceiling: at least 12,000 feet AGL
Clouds: few clouds at 1300 feet AGL
Weather: no significant weather observed at this time